sensor_id;sensor_type;location;lat;lon;timestamp;P1;durP1;ratioP1;P2;durP2;ratioP2
1777;SDS011;886;50.082;8.222;2023-05-07T00:02:10;4.07;;;3.77;;
1777;SDS011;886;50.082;8.222;2023-05-07T00:04:37;2.90;;;2.70;;
1777;SDS011;886;50.082;8.222;2023-05-07T00:07:05;2.77;;;2.53;;
1777;SDS011;886;50.082;8.222;2023-05-07T00:09:34;3.53;;;2.80;;
1777;SDS011;886;50.082;8.222;2023-05-07T00:12:01;2.53;;;2.33;;
1777;SDS011;886;50.082;8.222;2023-05-07T00:14:29;3.43;;;2.50;;
1777;SDS011;886;50.082;8.222;2023-05-07T00:16:57;2.57;;;2.37;;
1777;SDS011;886;50.082;8.222;2023-05-07T00:19:25;3.07;;;2.87;;
1777;SDS011;886;50.082;8.222;2023-05-07T00:21:52;5.07;;;3.00;;
1777;SDS011;886;50.082;8.222;2023-05-07T00:24:20;3.50;;;3.27;;
1777;SDS011;886;50.082;8.222;2023-05-07T00:26:49;3.00;;;2.80;;
1777;SDS011;886;50.082;8.222;2023-05-07T00:29:16;3.33;;;3.13;;
1777;SDS011;886;50.082;8.222;2023-05-07T00:31:43;3.50;;;3.20;;
1777;SDS011;886;50.082;8.222;2023-05-07T00:34:11;4.70;;;4.20;;
1777;SDS011;886;50.082;8.222;2023-05-07T00:36:38;2.00;;;1.90;;
1777;SDS011;886;50.082;8.222;2023-05-07T00:39:05;3.37;;;3.17;;
1777;SDS011;886;50.082;8.222;2023-05-07T00:41:33;2.63;;;2.03;;
1777;SDS011;886;50.082;8.222;2023-05-07T00:44:19;3.67;;;3.37;;
1777;SDS011;886;50.082;8.222;2023-05-07T00:46:47;3.13;;;2.70;;
1777;SDS011;886;50.082;8.222;2023-05-07T00:49:16;3.53;;;2.13;;
1777;SDS011;886;50.082;8.222;2023-05-07T00:51:44;2.20;;;2.03;;
1777;SDS011;886;50.082;8.222;2023-05-07T00:54:11;2.40;;;2.13;;
1777;SDS011;886;50.082;8.222;2023-05-07T00:56:40;3.20;;;2.10;;
1777;SDS011;886;50.082;8.222;2023-05-07T00:59:07;1.97;;;1.80;;
1777;SDS011;886;50.082;8.222;2023-05-07T01:01:36;2.40;;;2.30;;
1777;SDS011;886;50.082;8.222;2023-05-07T01:04:03;4.10;;;3.57;;
1777;SDS011;886;50.082;8.222;2023-05-07T01:06:32;2.33;;;2.13;;
1777;SDS011;886;50.082;8.222;2023-05-07T01:09:00;7.50;;;1.90;;
1777;SDS011;886;50.082;8.222;2023-05-07T01:11:30;4.37;;;2.17;;
1777;SDS011;886;50.082;8.222;2023-05-07T01:13:58;2.60;;;2.40;;
1777;SDS011;886;50.082;8.222;2023-05-07T01:16:26;3.40;;;3.20;;
1777;SDS011;886;50.082;8.222;2023-05-07T01:18:55;2.20;;;2.00;;
1777;SDS011;886;50.082;8.222;2023-05-07T01:21:23;3.23;;;1.77;;
1777;SDS011;886;50.082;8.222;2023-05-07T01:23:54;2.07;;;1.97;;
1777;SDS011;886;50.082;8.222;2023-05-07T01:26:22;4.20;;;3.10;;
1777;SDS011;886;50.082;8.222;2023-05-07T01:28:50;6.10;;;5.10;;
1777;SDS011;886;50.082;8.222;2023-05-07T01:31:17;5.50;;;4.73;;
1777;SDS011;886;50.082;8.222;2023-05-07T01:33:45;3.83;;;3.53;;
1777;SDS011;886;50.082;8.222;2023-05-07T01:36:32;3.00;;;2.80;;
1777;SDS011;886;50.082;8.222;2023-05-07T01:39:02;5.83;;;5.23;;
1777;SDS011;886;50.082;8.222;2023-05-07T01:41:32;4.17;;;3.83;;
1777;SDS011;886;50.082;8.222;2023-05-07T01:44:00;3.60;;;2.60;;
1777;SDS011;886;50.082;8.222;2023-05-07T01:46:30;5.20;;;3.67;;
1777;SDS011;886;50.082;8.222;2023-05-07T01:48:58;4.60;;;4.20;;
1777;SDS011;886;50.082;8.222;2023-05-07T01:51:26;4.27;;;3.87;;
1777;SDS011;886;50.082;8.222;2023-05-07T01:53:53;3.80;;;1.93;;
1777;SDS011;886;50.082;8.222;2023-05-07T01:56:22;2.63;;;2.43;;
1777;SDS011;886;50.082;8.222;2023-05-07T01:58:50;2.43;;;2.20;;
1777;SDS011;886;50.082;8.222;2023-05-07T02:01:18;3.10;;;1.87;;
1777;SDS011;886;50.082;8.222;2023-05-07T02:03:46;3.50;;;3.20;;
1777;SDS011;886;50.082;8.222;2023-05-07T02:06:13;1.80;;;1.70;;
1777;SDS011;886;50.082;8.222;2023-05-07T02:08:41;2.70;;;2.07;;
1777;SDS011;886;50.082;8.222;2023-05-07T02:11:08;2.00;;;1.90;;
1777;SDS011;886;50.082;8.222;2023-05-07T02:13:36;3.00;;;2.00;;
1777;SDS011;886;50.082;8.222;2023-05-07T02:16:03;3.07;;;2.77;;
1777;SDS011;886;50.082;8.222;2023-05-07T02:18:32;3.70;;;3.40;;
1777;SDS011;886;50.082;8.222;2023-05-07T02:20:59;3.20;;;2.93;;
1777;SDS011;886;50.082;8.222;2023-05-07T02:23:27;3.30;;;2.70;;
1777;SDS011;886;50.082;8.222;2023-05-07T02:25:54;3.90;;;3.60;;
1777;SDS011;886;50.082;8.222;2023-05-07T02:28:21;2.40;;;2.27;;
1777;SDS011;886;50.082;8.222;2023-05-07T02:30:50;2.43;;;2.30;;
1777;SDS011;886;50.082;8.222;2023-05-07T02:33:18;2.80;;;2.60;;
1777;SDS011;886;50.082;8.222;2023-05-07T02:35:45;3.93;;;2.20;;
1777;SDS011;886;50.082;8.222;2023-05-07T02:38:13;3.70;;;1.87;;
1777;SDS011;886;50.082;8.222;2023-05-07T02:40:40;2.23;;;2.03;;
1777;SDS011;886;50.082;8.222;2023-05-07T02:43:07;2.53;;;2.33;;
1777;SDS011;886;50.082;8.222;2023-05-07T02:45:34;3.93;;;3.63;;
1777;SDS011;886;50.082;8.222;2023-05-07T02:48:05;2.70;;;2.50;;
1777;SDS011;886;50.082;8.222;2023-05-07T02:50:32;2.33;;;2.13;;
1777;SDS011;886;50.082;8.222;2023-05-07T02:53:00;3.83;;;2.10;;
1777;SDS011;886;50.082;8.222;2023-05-07T02:55:27;1.87;;;1.77;;
1777;SDS011;886;50.082;8.222;2023-05-07T02:57:54;1.70;;;1.60;;
1777;SDS011;886;50.082;8.222;2023-05-07T03:00:21;2.03;;;1.83;;
1777;SDS011;886;50.082;8.222;2023-05-07T03:02:49;2.30;;;1.90;;
1777;SDS011;886;50.082;8.222;2023-05-07T03:05:18;1.77;;;1.67;;
1777;SDS011;886;50.082;8.222;2023-05-07T03:07:45;7.77;;;2.30;;
1777;SDS011;886;50.082;8.222;2023-05-07T03:10:14;1.80;;;1.70;;
1777;SDS011;886;50.082;8.222;2023-05-07T03:12:41;2.27;;;1.67;;
1777;SDS011;886;50.082;8.222;2023-05-07T03:15:09;2.30;;;2.20;;
1777;SDS011;886;50.082;8.222;2023-05-07T03:17:38;1.80;;;1.70;;
1777;SDS011;886;50.082;8.222;2023-05-07T03:20:07;2.00;;;1.90;;
1777;SDS011;886;50.082;8.222;2023-05-07T03:22:38;3.30;;;1.90;;
1777;SDS011;886;50.082;8.222;2023-05-07T03:25:06;2.27;;;2.10;;
1777;SDS011;886;50.082;8.222;2023-05-07T03:27:34;1.93;;;1.83;;
1777;SDS011;886;50.082;8.222;2023-05-07T03:30:02;3.30;;;1.97;;
1777;SDS011;886;50.082;8.222;2023-05-07T03:32:29;1.90;;;1.80;;
1777;SDS011;886;50.082;8.222;2023-05-07T03:35:14;2.13;;;1.97;;
1777;SDS011;886;50.082;8.222;2023-05-07T03:37:42;2.37;;;2.17;;
1777;SDS011;886;50.082;8.222;2023-05-07T03:40:10;2.00;;;1.83;;
1777;SDS011;886;50.082;8.222;2023-05-07T03:42:39;1.77;;;1.67;;
1777;SDS011;886;50.082;8.222;2023-05-07T03:45:07;3.80;;;2.20;;
1777;SDS011;886;50.082;8.222;2023-05-07T03:47:35;2.00;;;1.70;;
1777;SDS011;886;50.082;8.222;2023-05-07T03:50:02;1.73;;;1.63;;
1777;SDS011;886;50.082;8.222;2023-05-07T03:52:30;2.23;;;2.03;;
1777;SDS011;886;50.082;8.222;2023-05-07T03:54:58;1.90;;;1.70;;
1777;SDS011;886;50.082;8.222;2023-05-07T03:57:26;2.27;;;2.00;;
1777;SDS011;886;50.082;8.222;2023-05-07T03:59:53;2.80;;;2.50;;
1777;SDS011;886;50.082;8.222;2023-05-07T04:02:20;2.47;;;1.73;;
1777;SDS011;886;50.082;8.222;2023-05-07T04:04:48;2.47;;;1.83;;
1777;SDS011;886;50.082;8.222;2023-05-07T04:07:16;2.03;;;1.93;;
1777;SDS011;886;50.082;8.222;2023-05-07T04:09:43;2.10;;;2.00;;
1777;SDS011;886;50.082;8.222;2023-05-07T04:12:12;2.23;;;2.03;;
1777;SDS011;886;50.082;8.222;2023-05-07T04:14:39;2.13;;;1.90;;
1777;SDS011;886;50.082;8.222;2023-05-07T04:17:07;2.33;;;2.10;;
1777;SDS011;886;50.082;8.222;2023-05-07T04:19:35;2.50;;;2.23;;
1777;SDS011;886;50.082;8.222;2023-05-07T04:22:03;2.73;;;2.53;;
1777;SDS011;886;50.082;8.222;2023-05-07T04:24:31;6.27;;;2.40;;
1777;SDS011;886;50.082;8.222;2023-05-07T04:26:59;2.10;;;2.00;;
1777;SDS011;886;50.082;8.222;2023-05-07T04:29:28;2.47;;;2.27;;
1777;SDS011;886;50.082;8.222;2023-05-07T04:31:56;3.23;;;2.23;;
1777;SDS011;886;50.082;8.222;2023-05-07T04:34:25;2.50;;;2.20;;
1777;SDS011;886;50.082;8.222;2023-05-07T04:36:52;2.50;;;2.30;;
1777;SDS011;886;50.082;8.222;2023-05-07T04:39:19;2.60;;;2.40;;
1777;SDS011;886;50.082;8.222;2023-05-07T04:41:46;3.23;;;1.70;;
1777;SDS011;886;50.082;8.222;2023-05-07T04:44:13;2.30;;;2.10;;
1777;SDS011;886;50.082;8.222;2023-05-07T04:46:42;2.73;;;2.03;;
1777;SDS011;886;50.082;8.222;2023-05-07T04:49:09;2.27;;;2.10;;
1777;SDS011;886;50.082;8.222;2023-05-07T04:51:36;2.63;;;2.13;;
1777;SDS011;886;50.082;8.222;2023-05-07T04:54:05;2.30;;;2.20;;
1777;SDS011;886;50.082;8.222;2023-05-07T04:56:32;2.13;;;2.00;;
1777;SDS011;886;50.082;8.222;2023-05-07T04:58:59;2.10;;;2.00;;
1777;SDS011;886;50.082;8.222;2023-05-07T05:01:26;2.20;;;2.10;;
1777;SDS011;886;50.082;8.222;2023-05-07T05:03:55;2.40;;;2.20;;
1777;SDS011;886;50.082;8.222;2023-05-07T05:06:23;3.40;;;2.67;;
1777;SDS011;886;50.082;8.222;2023-05-07T05:08:50;5.67;;;5.17;;
1777;SDS011;886;50.082;8.222;2023-05-07T05:11:18;2.50;;;2.40;;
1777;SDS011;886;50.082;8.222;2023-05-07T05:13:45;2.57;;;2.40;;
1777;SDS011;886;50.082;8.222;2023-05-07T05:16:15;2.20;;;2.10;;
1777;SDS011;886;50.082;8.222;2023-05-07T05:18:43;2.10;;;2.00;;
1777;SDS011;886;50.082;8.222;2023-05-07T05:21:12;2.00;;;1.90;;
1777;SDS011;886;50.082;8.222;2023-05-07T05:23:39;2.37;;;2.27;;
1777;SDS011;886;50.082;8.222;2023-05-07T05:26:06;2.80;;;2.50;;
1777;SDS011;886;50.082;8.222;2023-05-07T05:28:33;2.37;;;1.90;;
1777;SDS011;886;50.082;8.222;2023-05-07T05:31:00;2.13;;;2.00;;
1777;SDS011;886;50.082;8.222;2023-05-07T05:33:28;2.77;;;2.60;;
1777;SDS011;886;50.082;8.222;2023-05-07T05:35:55;3.40;;;2.50;;
1777;SDS011;886;50.082;8.222;2023-05-07T05:38:23;3.27;;;2.97;;
1777;SDS011;886;50.082;8.222;2023-05-07T05:40:50;2.67;;;2.47;;
1777;SDS011;886;50.082;8.222;2023-05-07T05:43:20;2.13;;;2.03;;
1777;SDS011;886;50.082;8.222;2023-05-07T05:45:47;2.50;;;2.33;;
1777;SDS011;886;50.082;8.222;2023-05-07T05:48:14;2.30;;;2.20;;
1777;SDS011;886;50.082;8.222;2023-05-07T05:50:41;2.80;;;1.90;;
1777;SDS011;886;50.082;8.222;2023-05-07T05:53:09;2.53;;;2.27;;
1777;SDS011;886;50.082;8.222;2023-05-07T05:55:37;2.33;;;2.13;;
1777;SDS011;886;50.082;8.222;2023-05-07T05:58:04;2.03;;;1.93;;
1777;SDS011;886;50.082;8.222;2023-05-07T06:00:31;2.80;;;2.60;;
1777;SDS011;886;50.082;8.222;2023-05-07T06:02:58;1.70;;;1.60;;
1777;SDS011;886;50.082;8.222;2023-05-07T06:05:26;4.00;;;2.30;;
1777;SDS011;886;50.082;8.222;2023-05-07T06:07:53;3.80;;;2.10;;
1777;SDS011;886;50.082;8.222;2023-05-07T06:10:21;3.60;;;2.40;;
1777;SDS011;886;50.082;8.222;2023-05-07T06:12:49;2.23;;;2.03;;
1777;SDS011;886;50.082;8.222;2023-05-07T06:15:16;3.10;;;2.37;;
1777;SDS011;886;50.082;8.222;2023-05-07T06:17:44;2.50;;;2.30;;
1777;SDS011;886;50.082;8.222;2023-05-07T06:20:11;4.90;;;2.00;;
1777;SDS011;886;50.082;8.222;2023-05-07T06:22:38;2.33;;;2.23;;
1777;SDS011;886;50.082;8.222;2023-05-07T06:25:05;2.43;;;2.33;;
1777;SDS011;886;50.082;8.222;2023-05-07T06:27:34;2.43;;;2.23;;
1777;SDS011;886;50.082;8.222;2023-05-07T06:30:02;2.23;;;2.10;;
1777;SDS011;886;50.082;8.222;2023-05-07T06:32:31;2.03;;;1.90;;
1777;SDS011;886;50.082;8.222;2023-05-07T06:34:58;2.43;;;2.23;;
1777;SDS011;886;50.082;8.222;2023-05-07T06:37:25;2.17;;;2.03;;
1777;SDS011;886;50.082;8.222;2023-05-07T06:39:52;2.23;;;2.13;;
1777;SDS011;886;50.082;8.222;2023-05-07T06:42:19;3.40;;;2.20;;
1777;SDS011;886;50.082;8.222;2023-05-07T06:44:46;2.43;;;2.23;;
1777;SDS011;886;50.082;8.222;2023-05-07T06:47:15;2.53;;;2.07;;
1777;SDS011;886;50.082;8.222;2023-05-07T06:49:42;2.50;;;2.30;;
1777;SDS011;886;50.082;8.222;2023-05-07T06:52:09;3.27;;;2.43;;
1777;SDS011;886;50.082;8.222;2023-05-07T06:54:36;2.23;;;2.13;;
1777;SDS011;886;50.082;8.222;2023-05-07T06:57:03;2.23;;;2.13;;
1777;SDS011;886;50.082;8.222;2023-05-07T06:59:30;2.03;;;1.93;;
1777;SDS011;886;50.082;8.222;2023-05-07T07:01:57;2.13;;;2.03;;
1777;SDS011;886;50.082;8.222;2023-05-07T07:04:26;3.20;;;3.00;;
1777;SDS011;886;50.082;8.222;2023-05-07T07:06:54;3.33;;;3.03;;
1777;SDS011;886;50.082;8.222;2023-05-07T07:09:22;2.57;;;2.40;;
1777;SDS011;886;50.082;8.222;2023-05-07T07:11:49;3.20;;;2.23;;
1777;SDS011;886;50.082;8.222;2023-05-07T07:14:17;2.53;;;2.43;;
1777;SDS011;886;50.082;8.222;2023-05-07T07:16:45;2.80;;;2.60;;
1777;SDS011;886;50.082;8.222;2023-05-07T07:19:12;3.03;;;2.40;;
1777;SDS011;886;50.082;8.222;2023-05-07T07:21:43;3.10;;;2.57;;
1777;SDS011;886;50.082;8.222;2023-05-07T07:24:12;3.50;;;3.20;;
1777;SDS011;886;50.082;8.222;2023-05-07T07:26:39;3.20;;;2.80;;
1777;SDS011;886;50.082;8.222;2023-05-07T07:29:06;9.23;;;2.90;;
1777;SDS011;886;50.082;8.222;2023-05-07T07:31:34;3.67;;;3.30;;
1777;SDS011;886;50.082;8.222;2023-05-07T07:34:01;3.83;;;3.53;;
1777;SDS011;886;50.082;8.222;2023-05-07T07:36:28;2.90;;;2.70;;
1777;SDS011;886;50.082;8.222;2023-05-07T07:39:12;4.87;;;4.50;;
1777;SDS011;886;50.082;8.222;2023-05-07T07:41:40;3.10;;;2.90;;
1777;SDS011;886;50.082;8.222;2023-05-07T07:44:07;3.43;;;3.20;;
1777;SDS011;886;50.082;8.222;2023-05-07T07:46:35;3.70;;;2.90;;
1777;SDS011;886;50.082;8.222;2023-05-07T07:49:03;2.83;;;2.30;;
1777;SDS011;886;50.082;8.222;2023-05-07T07:51:30;3.90;;;3.60;;
1777;SDS011;886;50.082;8.222;2023-05-07T07:53:57;2.80;;;2.60;;
1777;SDS011;886;50.082;8.222;2023-05-07T07:56:26;2.77;;;2.53;;
1777;SDS011;886;50.082;8.222;2023-05-07T07:58:53;2.87;;;2.67;;
1777;SDS011;886;50.082;8.222;2023-05-07T08:01:20;2.70;;;2.50;;
1777;SDS011;886;50.082;8.222;2023-05-07T08:03:47;3.33;;;3.03;;
1777;SDS011;886;50.082;8.222;2023-05-07T08:06:15;2.70;;;2.50;;
1777;SDS011;886;50.082;8.222;2023-05-07T08:08:42;3.80;;;3.37;;
1777;SDS011;886;50.082;8.222;2023-05-07T08:11:10;3.37;;;3.17;;
1777;SDS011;886;50.082;8.222;2023-05-07T08:13:38;3.03;;;2.83;;
1777;SDS011;886;50.082;8.222;2023-05-07T08:16:06;2.83;;;2.67;;
1777;SDS011;886;50.082;8.222;2023-05-07T08:18:33;3.40;;;3.10;;
1777;SDS011;886;50.082;8.222;2023-05-07T08:21:01;6.30;;;4.33;;
1777;SDS011;886;50.082;8.222;2023-05-07T08:23:28;3.70;;;3.43;;
1777;SDS011;886;50.082;8.222;2023-05-07T08:25:56;3.63;;;2.87;;
1777;SDS011;886;50.082;8.222;2023-05-07T08:28:23;3.20;;;2.90;;
1777;SDS011;886;50.082;8.222;2023-05-07T08:30:53;3.40;;;3.00;;
1777;SDS011;886;50.082;8.222;2023-05-07T08:33:20;3.23;;;3.03;;
1777;SDS011;886;50.082;8.222;2023-05-07T08:35:47;4.10;;;3.80;;
1777;SDS011;886;50.082;8.222;2023-05-07T08:38:16;4.50;;;4.20;;
1777;SDS011;886;50.082;8.222;2023-05-07T08:40:43;3.30;;;3.10;;
1777;SDS011;886;50.082;8.222;2023-05-07T08:43:11;5.83;;;5.27;;
1777;SDS011;886;50.082;8.222;2023-05-07T08:45:40;4.10;;;3.80;;
1777;SDS011;886;50.082;8.222;2023-05-07T08:48:14;4.93;;;4.63;;
1777;SDS011;886;50.082;8.222;2023-05-07T08:50:43;3.10;;;2.90;;
1777;SDS011;886;50.082;8.222;2023-05-07T08:53:10;3.27;;;3.07;;
1777;SDS011;886;50.082;8.222;2023-05-07T08:55:38;2.73;;;2.60;;
1777;SDS011;886;50.082;8.222;2023-05-07T08:58:06;4.93;;;3.30;;
1777;SDS011;886;50.082;8.222;2023-05-07T09:00:33;4.93;;;4.53;;
1777;SDS011;886;50.082;8.222;2023-05-07T09:03:02;2.80;;;2.70;;
1777;SDS011;886;50.082;8.222;2023-05-07T09:05:31;4.23;;;3.70;;
1777;SDS011;886;50.082;8.222;2023-05-07T09:07:58;4.87;;;4.47;;
1777;SDS011;886;50.082;8.222;2023-05-07T09:10:26;3.90;;;3.63;;
1777;SDS011;886;50.082;8.222;2023-05-07T09:12:53;3.50;;;3.30;;
1777;SDS011;886;50.082;8.222;2023-05-07T09:15:20;3.30;;;3.10;;
1777;SDS011;886;50.082;8.222;2023-05-07T09:17:48;3.03;;;2.83;;
1777;SDS011;886;50.082;8.222;2023-05-07T09:20:15;3.00;;;2.80;;
1777;SDS011;886;50.082;8.222;2023-05-07T09:22:44;2.80;;;2.70;;
1777;SDS011;886;50.082;8.222;2023-05-07T09:25:11;3.00;;;2.80;;
1777;SDS011;886;50.082;8.222;2023-05-07T09:27:40;3.27;;;2.97;;
1777;SDS011;886;50.082;8.222;2023-05-07T09:30:08;2.83;;;2.63;;
1777;SDS011;886;50.082;8.222;2023-05-07T09:32:37;4.23;;;3.93;;
1777;SDS011;886;50.082;8.222;2023-05-07T09:35:04;3.40;;;3.20;;
1777;SDS011;886;50.082;8.222;2023-05-07T09:37:35;2.97;;;2.87;;
1777;SDS011;886;50.082;8.222;2023-05-07T09:40:04;3.27;;;3.07;;
1777;SDS011;886;50.082;8.222;2023-05-07T09:42:51;4.47;;;4.17;;
1777;SDS011;886;50.082;8.222;2023-05-07T09:45:22;4.23;;;3.93;;
1777;SDS011;886;50.082;8.222;2023-05-07T09:47:49;5.37;;;3.57;;
1777;SDS011;886;50.082;8.222;2023-05-07T09:50:23;3.33;;;3.13;;
1777;SDS011;886;50.082;8.222;2023-05-07T09:52:55;7.57;;;3.30;;
1777;SDS011;886;50.082;8.222;2023-05-07T09:55:24;3.50;;;3.30;;
1777;SDS011;886;50.082;8.222;2023-05-07T09:57:52;3.33;;;3.10;;
1777;SDS011;886;50.082;8.222;2023-05-07T10:00:21;3.67;;;3.47;;
1777;SDS011;886;50.082;8.222;2023-05-07T10:02:49;3.63;;;3.40;;
1777;SDS011;886;50.082;8.222;2023-05-07T10:05:19;4.83;;;3.03;;
1777;SDS011;886;50.082;8.222;2023-05-07T10:07:46;3.63;;;3.33;;
1777;SDS011;886;50.082;8.222;2023-05-07T10:10:15;4.97;;;3.10;;
1777;SDS011;886;50.082;8.222;2023-05-07T10:12:44;3.63;;;3.43;;
1777;SDS011;886;50.082;8.222;2023-05-07T10:15:11;3.60;;;3.40;;
1777;SDS011;886;50.082;8.222;2023-05-07T10:17:40;3.73;;;3.43;;
1777;SDS011;886;50.082;8.222;2023-05-07T10:20:08;3.90;;;3.60;;
1777;SDS011;886;50.082;8.222;2023-05-07T10:22:37;4.20;;;3.17;;
1777;SDS011;886;50.082;8.222;2023-05-07T10:25:09;4.10;;;3.80;;
1777;SDS011;886;50.082;8.222;2023-05-07T10:27:41;3.60;;;3.37;;
1777;SDS011;886;50.082;8.222;2023-05-07T10:30:14;4.20;;;3.80;;
1777;SDS011;886;50.082;8.222;2023-05-07T10:32:53;4.10;;;3.80;;
1777;SDS011;886;50.082;8.222;2023-05-07T10:35:25;3.47;;;3.27;;
1777;SDS011;886;50.082;8.222;2023-05-07T10:37:58;5.53;;;5.20;;
1777;SDS011;886;50.082;8.222;2023-05-07T10:40:25;5.10;;;4.70;;
1777;SDS011;886;50.082;8.222;2023-05-07T10:42:54;4.20;;;3.80;;
1777;SDS011;886;50.082;8.222;2023-05-07T10:45:23;4.70;;;4.30;;
1777;SDS011;886;50.082;8.222;2023-05-07T10:48:06;4.63;;;4.33;;
1777;SDS011;886;50.082;8.222;2023-05-07T10:50:53;3.80;;;3.60;;
1777;SDS011;886;50.082;8.222;2023-05-07T10:53:48;3.77;;;3.50;;
1777;SDS011;886;50.082;8.222;2023-05-07T10:56:44;4.17;;;3.87;;
1777;SDS011;886;50.082;8.222;2023-05-07T10:59:31;4.10;;;3.70;;
1777;SDS011;886;50.082;8.222;2023-05-07T11:02:08;4.20;;;3.90;;
1777;SDS011;886;50.082;8.222;2023-05-07T11:04:40;5.03;;;4.73;;
1777;SDS011;886;50.082;8.222;2023-05-07T11:10:05;6.20;;;4.70;;
1777;SDS011;886;50.082;8.222;2023-05-07T11:12:46;4.40;;;4.17;;
1777;SDS011;886;50.082;8.222;2023-05-07T11:15:44;4.63;;;4.13;;
1777;SDS011;886;50.082;8.222;2023-05-07T11:18:13;4.00;;;3.77;;
1777;SDS011;886;50.082;8.222;2023-05-07T11:20:45;7.20;;;6.60;;
1777;SDS011;886;50.082;8.222;2023-05-07T11:26:22;4.30;;;4.00;;
1777;SDS011;886;50.082;8.222;2023-05-07T11:28:49;6.20;;;4.50;;
1777;SDS011;886;50.082;8.222;2023-05-07T11:31:21;6.03;;;5.70;;
1777;SDS011;886;50.082;8.222;2023-05-07T11:33:50;7.33;;;6.63;;
1777;SDS011;886;50.082;8.222;2023-05-07T11:36:18;7.40;;;6.57;;
1777;SDS011;886;50.082;8.222;2023-05-07T11:38:47;5.20;;;4.70;;
1777;SDS011;886;50.082;8.222;2023-05-07T11:41:15;4.67;;;4.27;;
1777;SDS011;886;50.082;8.222;2023-05-07T11:43:53;4.47;;;4.20;;
1777;SDS011;886;50.082;8.222;2023-05-07T11:46:23;4.47;;;4.17;;
1777;SDS011;886;50.082;8.222;2023-05-07T11:48:51;7.10;;;6.50;;
1777;SDS011;886;50.082;8.222;2023-05-07T11:51:19;4.10;;;3.80;;
1777;SDS011;886;50.082;8.222;2023-05-07T11:53:47;6.37;;;5.87;;
1777;SDS011;886;50.082;8.222;2023-05-07T11:56:15;4.00;;;3.70;;
1777;SDS011;886;50.082;8.222;2023-05-07T11:58:43;4.80;;;4.50;;
1777;SDS011;886;50.082;8.222;2023-05-07T12:01:13;4.47;;;4.17;;
1777;SDS011;886;50.082;8.222;2023-05-07T12:03:43;3.60;;;3.40;;
1777;SDS011;886;50.082;8.222;2023-05-07T12:06:13;7.80;;;5.13;;
1777;SDS011;886;50.082;8.222;2023-05-07T12:08:43;5.10;;;4.80;;
1777;SDS011;886;50.082;8.222;2023-05-07T12:11:14;5.43;;;4.80;;
1777;SDS011;886;50.082;8.222;2023-05-07T12:13:48;4.17;;;3.97;;
1777;SDS011;886;50.082;8.222;2023-05-07T12:16:16;4.50;;;4.30;;
1777;SDS011;886;50.082;8.222;2023-05-07T12:18:45;6.73;;;6.23;;
1777;SDS011;886;50.082;8.222;2023-05-07T12:21:12;20.07;;;17.63;;
1777;SDS011;886;50.082;8.222;2023-05-07T12:23:40;7.03;;;6.43;;
1777;SDS011;886;50.082;8.222;2023-05-07T12:26:08;6.50;;;5.87;;
1777;SDS011;886;50.082;8.222;2023-05-07T12:28:38;8.17;;;6.87;;
1777;SDS011;886;50.082;8.222;2023-05-07T12:31:05;6.83;;;6.23;;
1777;SDS011;886;50.082;8.222;2023-05-07T12:33:34;7.43;;;6.10;;
1777;SDS011;886;50.082;8.222;2023-05-07T12:36:06;7.33;;;6.73;;
1777;SDS011;886;50.082;8.222;2023-05-07T12:38:35;7.23;;;4.60;;
1777;SDS011;886;50.082;8.222;2023-05-07T12:41:04;4.00;;;3.80;;
1777;SDS011;886;50.082;8.222;2023-05-07T12:43:33;9.10;;;8.30;;
1777;SDS011;886;50.082;8.222;2023-05-07T12:46:01;11.13;;;10.00;;
1777;SDS011;886;50.082;8.222;2023-05-07T12:48:31;4.50;;;4.20;;
1777;SDS011;886;50.082;8.222;2023-05-07T12:50:59;6.10;;;5.70;;
1777;SDS011;886;50.082;8.222;2023-05-07T12:53:30;4.40;;;3.97;;
1777;SDS011;886;50.082;8.222;2023-05-07T12:55:58;4.93;;;4.53;;
1777;SDS011;886;50.082;8.222;2023-05-07T12:58:27;4.83;;;4.53;;
1777;SDS011;886;50.082;8.222;2023-05-07T13:00:56;5.07;;;4.67;;
1777;SDS011;886;50.082;8.222;2023-05-07T13:03:27;5.00;;;4.50;;
1777;SDS011;886;50.082;8.222;2023-05-07T13:05:57;4.87;;;4.47;;
1777;SDS011;886;50.082;8.222;2023-05-07T13:08:27;4.33;;;4.10;;
1777;SDS011;886;50.082;8.222;2023-05-07T13:10:58;4.27;;;3.97;;
1777;SDS011;886;50.082;8.222;2023-05-07T13:13:29;4.97;;;4.60;;
1777;SDS011;886;50.082;8.222;2023-05-07T13:15:58;4.47;;;4.10;;
1777;SDS011;886;50.082;8.222;2023-05-07T13:18:44;4.57;;;4.27;;
1777;SDS011;886;50.082;8.222;2023-05-07T13:21:12;4.60;;;4.30;;
1777;SDS011;886;50.082;8.222;2023-05-07T13:23:41;4.60;;;4.30;;
1777;SDS011;886;50.082;8.222;2023-05-07T13:26:08;6.17;;;5.57;;
1777;SDS011;886;50.082;8.222;2023-05-07T13:28:51;4.87;;;4.33;;
1777;SDS011;886;50.082;8.222;2023-05-07T13:31:18;4.30;;;3.90;;
1777;SDS011;886;50.082;8.222;2023-05-07T13:33:47;4.60;;;4.33;;
1777;SDS011;886;50.082;8.222;2023-05-07T13:36:14;3.40;;;3.20;;
1777;SDS011;886;50.082;8.222;2023-05-07T13:38:43;4.20;;;4.00;;
1777;SDS011;886;50.082;8.222;2023-05-07T13:41:10;3.80;;;3.60;;
1777;SDS011;886;50.082;8.222;2023-05-07T13:43:39;3.87;;;3.63;;
1777;SDS011;886;50.082;8.222;2023-05-07T13:46:06;4.17;;;3.87;;
1777;SDS011;886;50.082;8.222;2023-05-07T13:48:34;4.20;;;3.53;;
1777;SDS011;886;50.082;8.222;2023-05-07T13:51:01;4.40;;;4.10;;
1777;SDS011;886;50.082;8.222;2023-05-07T13:53:28;4.00;;;3.73;;
1777;SDS011;886;50.082;8.222;2023-05-07T13:55:57;5.50;;;5.00;;
1777;SDS011;886;50.082;8.222;2023-05-07T13:58:24;4.30;;;4.00;;
1777;SDS011;886;50.082;8.222;2023-05-07T14:00:51;3.93;;;3.67;;
1777;SDS011;886;50.082;8.222;2023-05-07T14:03:19;4.10;;;3.57;;
1777;SDS011;886;50.082;8.222;2023-05-07T14:05:47;4.10;;;3.80;;
1777;SDS011;886;50.082;8.222;2023-05-07T14:08:15;3.83;;;3.63;;
1777;SDS011;886;50.082;8.222;2023-05-07T14:10:46;4.90;;;3.80;;
1777;SDS011;886;50.082;8.222;2023-05-07T14:13:14;3.07;;;2.97;;
1777;SDS011;886;50.082;8.222;2023-05-07T14:15:41;3.40;;;3.20;;
1777;SDS011;886;50.082;8.222;2023-05-07T14:18:12;3.83;;;3.63;;
1777;SDS011;886;50.082;8.222;2023-05-07T14:20:40;3.70;;;3.40;;
1777;SDS011;886;50.082;8.222;2023-05-07T14:23:09;3.93;;;3.50;;
1777;SDS011;886;50.082;8.222;2023-05-07T14:25:36;3.50;;;3.30;;
1777;SDS011;886;50.082;8.222;2023-05-07T14:28:04;4.57;;;3.73;;
1777;SDS011;886;50.082;8.222;2023-05-07T14:30:35;4.30;;;3.10;;
1777;SDS011;886;50.082;8.222;2023-05-07T14:33:02;3.93;;;3.73;;
1777;SDS011;886;50.082;8.222;2023-05-07T14:35:30;4.23;;;4.03;;
1777;SDS011;886;50.082;8.222;2023-05-07T14:37:57;3.43;;;3.13;;
1777;SDS011;886;50.082;8.222;2023-05-07T14:40:24;3.63;;;3.43;;
1777;SDS011;886;50.082;8.222;2023-05-07T14:42:51;3.43;;;3.23;;
1777;SDS011;886;50.082;8.222;2023-05-07T14:45:20;3.90;;;3.60;;
1777;SDS011;886;50.082;8.222;2023-05-07T14:47:49;4.40;;;4.00;;
1777;SDS011;886;50.082;8.222;2023-05-07T14:50:16;4.13;;;3.83;;
1777;SDS011;886;50.082;8.222;2023-05-07T14:52:44;4.73;;;4.30;;
1777;SDS011;886;50.082;8.222;2023-05-07T14:55:11;3.40;;;3.20;;
1777;SDS011;886;50.082;8.222;2023-05-07T14:57:39;3.73;;;3.53;;
1777;SDS011;886;50.082;8.222;2023-05-07T15:00:06;3.97;;;3.70;;
1777;SDS011;886;50.082;8.222;2023-05-07T15:02:36;4.07;;;3.87;;
1777;SDS011;886;50.082;8.222;2023-05-07T15:05:05;3.80;;;3.60;;
1777;SDS011;886;50.082;8.222;2023-05-07T15:07:33;4.10;;;3.60;;
1777;SDS011;886;50.082;8.222;2023-05-07T15:10:00;3.33;;;3.13;;
1777;SDS011;886;50.082;8.222;2023-05-07T15:12:27;4.10;;;3.80;;
1777;SDS011;886;50.082;8.222;2023-05-07T15:14:54;3.40;;;3.20;;
1777;SDS011;886;50.082;8.222;2023-05-07T15:17:22;3.70;;;3.40;;
1777;SDS011;886;50.082;8.222;2023-05-07T15:19:49;4.03;;;3.73;;
1777;SDS011;886;50.082;8.222;2023-05-07T15:22:21;4.40;;;4.10;;
1777;SDS011;886;50.082;8.222;2023-05-07T15:24:48;3.37;;;3.17;;
1777;SDS011;886;50.082;8.222;2023-05-07T15:27:15;6.10;;;5.70;;
1777;SDS011;886;50.082;8.222;2023-05-07T15:29:43;5.33;;;4.93;;
1777;SDS011;886;50.082;8.222;2023-05-07T15:32:11;5.00;;;4.70;;
1777;SDS011;886;50.082;8.222;2023-05-07T15:34:38;4.90;;;4.57;;
1777;SDS011;886;50.082;8.222;2023-05-07T15:37:05;5.03;;;4.70;;
1777;SDS011;886;50.082;8.222;2023-05-07T15:39:34;4.67;;;4.20;;
1777;SDS011;886;50.082;8.222;2023-05-07T15:42:01;4.90;;;4.50;;
1777;SDS011;886;50.082;8.222;2023-05-07T15:44:29;5.23;;;4.77;;
1777;SDS011;886;50.082;8.222;2023-05-07T15:47:01;5.00;;;4.60;;